Webster, Iowa
Current Conditions -  °F | °C
As of 10:55 PM on Thursday 30 Oct 2014 (Local Time) from KOOA Reporting Station
Overcast Overcast  
Wind Chill: 44°   Ceiling: 6000
Heat Index: 49°   Visibility: 10mi
Dew Point: 38°   Wind: 15mph
Humidity: 65%   Direction: 350°N
Pressure: 30.16"   Gusts: NA
Location:  41.44°N, 92.17°W
Report Text: KOOA 310355Z AUTO 35013KT 10SM OVC060 10/03 A3016 RMK AO2 T00960033
Loading
Personal Weather Stations






























Interactive Weather Map
Tropical Storm Tracking
New forecast layout! Learn more

10-Day Weather Forecast

Advertisements
Track Severe Weather on mobile